Time;durP1;ratioP1;P1;durP2;ratioP2;P2;SDS_P1;SDS_P2;PMS_P1;PMS_P2;Temp;Humidity;BMP_temperature;BMP_pressure;BME280_temperature;BME280_humidity;BME280_pressure;Samples;Min_cycle;Max_cycle;Signal;HPM_P1;HPM_P2
2024/02/17 00:00:43;;;;;;;38.93;16.43;;;11.30;99.90;;;;;;4183220;28;20206;-74
2024/02/17 00:02:43;;;;;;;37.00;15.87;;;11.30;99.90;;;;;;4192757;28;20233;-74
2024/02/17 00:04:45;;;;;;;33.27;15.70;;;11.30;99.90;;;;;;4192188;28;20240;-74
2024/02/17 00:06:47;;;;;;;31.57;14.93;;;11.30;99.90;;;;;;4188211;28;20225;-74
2024/02/17 00:08:49;;;;;;;44.20;17.73;;;11.30;99.90;;;;;;4189269;28;20575;-74
2024/02/17 00:10:51;;;;;;;37.17;16.93;;;11.20;99.90;;;;;;4189842;28;20202;-74
2024/02/17 00:12:55;;;;;;;40.33;17.43;;;11.20;99.90;;;;;;4184067;28;20234;-74
2024/02/17 00:14:57;;;;;;;41.70;18.07;;;11.20;99.90;;;;;;4185876;28;20198;-74
2024/02/17 00:16:58;;;;;;;45.63;19.00;;;11.20;99.90;;;;;;4187490;28;20214;-74
2024/02/17 00:19:00;;;;;;;51.93;20.20;;;11.20;99.90;;;;;;4187810;28;20226;-74
2024/02/17 00:21:04;;;;;;;68.63;21.87;;;11.20;99.90;;;;;;4185918;28;20674;-75
2024/02/17 00:23:06;;;;;;;48.77;19.37;;;11.20;99.90;;;;;;4185587;28;20234;-74
2024/02/17 00:25:08;;;;;;;57.40;21.10;;;11.10;99.90;;;;;;4183599;28;20228;-74
2024/02/17 00:27:10;;;;;;;40.73;17.30;;;11.10;99.90;;;;;;4186728;28;20203;-74
2024/02/17 00:29:13;;;;;;;64.13;22.03;;;11.10;99.90;;;;;;4184498;28;20285;-74
2024/02/17 00:31:17;;;;;;;45.63;18.43;;;11.10;99.90;;;;;;4188084;28;20211;-75
2024/02/17 00:33:19;;;;;;;56.10;19.00;;;11.10;99.90;;;;;;4184285;28;20225;-74
2024/02/17 00:35:20;;;;;;;49.63;19.00;;;11.10;99.90;;;;;;4192167;28;20213;-75
2024/02/17 00:37:22;;;;;;;51.80;20.10;;;11.10;99.90;;;;;;4189629;28;20285;-74
2024/02/17 00:39:23;;;;;;;58.53;20.83;;;11.10;99.90;;;;;;4183136;28;20284;-74
2024/02/17 00:41:25;;;;;;;59.57;21.47;;;11.10;99.90;;;;;;4186331;28;21114;-74
2024/02/17 00:43:27;;;;;;;57.87;21.57;;;11.10;99.90;;;;;;4188803;28;20230;-74
2024/02/17 00:45:30;;;;;;;60.60;21.80;;;11.00;99.90;;;;;;4187864;28;20601;-75
2024/02/17 00:47:31;;;;;;;55.17;21.83;;;11.00;99.90;;;;;;4186634;28;20562;-74
2024/02/17 00:49:33;;;;;;;56.63;22.77;;;11.00;99.90;;;;;;4189886;28;20213;-74
2024/02/17 00:51:34;;;;;;;65.23;22.70;;;11.00;99.90;;;;;;4189331;28;20214;-74
2024/02/17 00:53:38;;;;;;;64.40;23.50;;;11.00;99.90;;;;;;4189232;28;20559;-74
2024/02/17 00:55:38;;;;;;;57.40;22.33;;;11.00;99.90;;;;;;4188349;28;20207;-74
2024/02/17 00:57:40;;;;;;;68.60;24.13;;;11.00;99.90;;;;;;4185010;28;20263;-74
2024/02/17 00:59:42;;;;;;;52.90;21.90;;;10.90;99.90;;;;;;4187538;28;20268;-74
2024/02/17 01:01:45;;;;;;;57.73;22.40;;;11.00;99.90;;;;;;4185443;28;20285;-74
2024/02/17 01:03:46;;;;;;;56.27;21.37;;;10.90;99.90;;;;;;4188294;28;20205;-74
2024/02/17 01:05:48;;;;;;;55.10;22.33;;;10.90;99.90;;;;;;4188586;28;20280;-74
2024/02/17 01:07:50;;;;;;;81.07;26.33;;;10.90;99.90;;;;;;4184913;28;20210;-73
2024/02/17 01:09:54;;;;;;;63.83;24.50;;;10.90;99.90;;;;;;4180201;28;20210;-74
2024/02/17 01:11:58;;;;;;;65.83;24.53;;;10.90;99.90;;;;;;4182639;28;20236;-74
2024/02/17 01:14:00;;;;;;;71.10;24.97;;;10.80;99.90;;;;;;4188124;28;20288;-74
2024/02/17 01:16:01;;;;;;;57.67;23.17;;;10.90;99.90;;;;;;4186514;28;20636;-74
2024/02/17 01:18:05;;;;;;;76.20;25.50;;;10.80;99.90;;;;;;4184941;28;20236;-74
2024/02/17 01:20:08;;;;;;;66.50;23.70;;;10.90;99.90;;;;;;4187945;28;20205;-74
2024/02/17 01:22:09;;;;;;;68.80;24.03;;;10.80;99.90;;;;;;4184373;28;20226;-74
2024/02/17 01:24:10;;;;;;;66.07;24.23;;;10.70;99.90;;;;;;4183562;28;20668;-74
2024/02/17 01:26:12;;;;;;;60.43;22.67;;;10.70;99.90;;;;;;4186441;28;20560;-74
2024/02/17 01:28:14;;;;;;;71.77;24.13;;;10.70;99.90;;;;;;4188369;28;20205;-74
2024/02/17 01:30:16;;;;;;;58.67;22.00;;;10.60;99.90;;;;;;4183954;28;20213;-74
2024/02/17 01:32:17;;;;;;;56.33;21.30;;;10.60;99.90;;;;;;4188761;28;20230;-74
2024/02/17 01:34:21;;;;;;;64.83;22.50;;;10.60;99.90;;;;;;4185018;28;20225;-74
2024/02/17 01:36:23;;;;;;;58.10;22.30;;;10.60;99.90;;;;;;4184612;28;20199;-74
2024/02/17 01:38:25;;;;;;;56.57;20.50;;;10.60;99.90;;;;;;4191032;28;20229;-74
2024/02/17 01:40:27;;;;;;;59.60;21.43;;;10.60;99.90;;;;;;4185092;28;20216;-74
2024/02/17 01:42:28;;;;;;;51.30;20.23;;;10.50;99.90;;;;;;4189364;28;20234;-74
2024/02/17 01:44:30;;;;;;;59.07;20.77;;;10.50;99.90;;;;;;4180710;28;20676;-74
2024/02/17 01:46:33;;;;;;;47.50;18.73;;;10.50;99.90;;;;;;4184742;28;20244;-75
2024/02/17 01:48:35;;;;;;;49.43;18.60;;;10.50;99.90;;;;;;4187680;28;20214;-75
2024/02/17 01:50:40;;;;;;;56.13;20.70;;;10.40;99.90;;;;;;4189714;28;20209;-74
2024/02/17 01:52:42;;;;;;;55.90;20.20;;;10.40;99.90;;;;;;4180110;28;20229;-74
2024/02/17 01:54:45;;;;;;;59.47;21.00;;;10.40;99.90;;;;;;4192418;28;20201;-73
2024/02/17 01:56:48;;;;;;;54.80;20.53;;;10.40;99.90;;;;;;4180273;28;20682;-74
2024/02/17 01:58:50;;;;;;;55.73;19.97;;;10.40;99.90;;;;;;4186755;28;21839;-74
2024/02/17 02:00:52;;;;;;;49.33;19.13;;;10.30;99.90;;;;;;4188061;28;20577;-74
2024/02/17 02:02:53;;;;;;;53.30;19.20;;;10.40;99.90;;;;;;4184706;28;20404;-74
2024/02/17 02:04:56;;;;;;;51.63;19.60;;;10.30;99.90;;;;;;4183853;28;20209;-74
2024/02/17 02:06:59;;;;;;;51.33;18.03;;;10.30;99.90;;;;;;4185660;28;20206;-73
2024/02/17 02:09:01;;;;;;;53.53;19.27;;;10.30;99.90;;;;;;4181835;28;20667;-74
2024/02/17 02:11:04;;;;;;;56.27;19.90;;;10.30;99.90;;;;;;4192755;28;20722;-73
2024/02/17 02:13:09;;;;;;;53.77;19.53;;;10.30;99.90;;;;;;4187927;28;20228;-74
2024/02/17 02:15:11;;;;;;;48.50;19.20;;;10.30;99.90;;;;;;4185333;28;20259;-74
2024/02/17 02:17:13;;;;;;;52.63;19.27;;;10.30;99.90;;;;;;4181836;28;20225;-74
2024/02/17 02:19:15;;;;;;;49.03;18.57;;;10.30;99.90;;;;;;4183332;28;20217;-74
2024/02/17 02:21:17;;;;;;;52.20;18.07;;;10.30;99.90;;;;;;4183309;28;20761;-74
2024/02/17 02:23:24;;;;;;;48.97;18.77;;;10.20;99.90;;;;;;4184991;28;20713;-74
2024/02/17 02:25:26;;;;;;;47.00;18.00;;;10.20;99.90;;;;;;4183275;28;20880;-74
2024/02/17 02:27:30;;;;;;;49.10;18.17;;;10.20;99.90;;;;;;4186361;28;20217;-74
2024/02/17 02:29:32;;;;;;;48.30;17.47;;;10.20;99.90;;;;;;4187804;28;20257;-74
2024/02/17 02:31:34;;;;;;;57.43;19.73;;;10.20;99.90;;;;;;4184831;28;20279;-74
2024/02/17 02:33:36;;;;;;;57.90;20.13;;;10.20;99.90;;;;;;4186568;28;20724;-74
2024/02/17 02:35:37;;;;;;;50.17;18.20;;;10.20;99.90;;;;;;4184218;28;20295;-74
2024/02/17 02:37:39;;;;;;;61.97;19.67;;;10.20;99.90;;;;;;4185896;28;20557;-74
2024/02/17 02:39:41;;;;;;;49.50;17.90;;;10.20;99.90;;;;;;4180558;28;20230;-74
2024/02/17 02:41:43;;;;;;;48.70;18.33;;;10.20;99.90;;;;;;4186952;28;20232;-74
2024/02/17 02:43:48;;;;;;;57.83;19.77;;;10.10;99.90;;;;;;4189568;28;20236;-74
2024/02/17 02:45:50;;;;;;;49.50;17.87;;;10.10;99.90;;;;;;4185187;28;20619;-74
2024/02/17 02:47:52;;;;;;;57.70;18.73;;;10.10;99.90;;;;;;4181870;28;20209;-74
2024/02/17 02:49:54;;;;;;;44.17;17.13;;;10.00;99.90;;;;;;4186424;28;20255;-74
2024/02/17 02:51:56;;;;;;;51.50;18.53;;;10.00;99.90;;;;;;4180981;28;20256;-74
2024/02/17 02:53:58;;;;;;;46.93;17.60;;;10.00;99.90;;;;;;4179747;28;20264;-74
2024/02/17 02:56:01;;;;;;;57.43;19.03;;;10.00;99.90;;;;;;4186410;28;20213;-74
2024/02/17 02:58:03;;;;;;;52.17;18.03;;;10.00;99.90;;;;;;4193757;28;20282;-74
2024/02/17 03:00:08;;;;;;;59.77;18.30;;;10.00;99.90;;;;;;4184615;28;20582;-74
2024/02/17 03:02:10;;;;;;;62.27;19.80;;;9.90;99.90;;;;;;4188865;28;20240;-74
2024/02/17 03:04:12;;;;;;;51.77;19.50;;;10.00;99.90;;;;;;4181603;28;20210;-74
2024/02/17 03:06:14;;;;;;;58.90;19.20;;;9.90;99.90;;;;;;4190210;28;20217;-74
2024/02/17 03:08:17;;;;;;;44.53;15.80;;;10.00;99.90;;;;;;4190919;28;20596;-74
2024/02/17 03:10:19;;;;;;;55.17;18.17;;;9.90;99.90;;;;;;4189014;28;20202;-73
2024/02/17 03:12:21;;;;;;;51.17;17.70;;;10.00;99.90;;;;;;4187265;28;20241;-74
2024/02/17 03:14:23;;;;;;;51.13;17.37;;;9.90;99.90;;;;;;4186584;28;20245;-74
2024/02/17 03:16:29;;;;;;;49.90;16.30;;;9.90;99.90;;;;;;4188484;28;20220;-74
2024/02/17 03:18:34;;;;;;;47.13;15.83;;;9.90;99.90;;;;;;4184086;28;20288;-74
2024/02/17 03:20:35;;;;;;;46.97;15.57;;;9.90;99.90;;;;;;4192602;28;20252;-74
2024/02/17 03:22:37;;;;;;;56.47;16.13;;;9.90;99.90;;;;;;4183781;28;20238;-74
2024/02/17 03:24:39;;;;;;;51.87;16.20;;;9.90;99.90;;;;;;4189701;28;20202;-74
2024/02/17 03:26:41;;;;;;;49.60;16.10;;;9.80;99.90;;;;;;4189732;28;20209;-74
2024/02/17 03:28:43;;;;;;;47.10;16.30;;;9.80;99.90;;;;;;4186423;28;20234;-73
2024/02/17 03:30:45;;;;;;;63.10;18.57;;;9.70;99.90;;;;;;4185952;28;20271;-73
2024/02/17 03:32:48;;;;;;;47.13;16.53;;;9.70;99.90;;;;;;4188715;28;20253;-74
2024/02/17 03:34:51;;;;;;;42.97;15.93;;;9.60;99.90;;;;;;4185044;28;20228;-74
2024/02/17 03:36:53;;;;;;;61.50;18.47;;;9.60;99.90;;;;;;4189989;28;20208;-74
2024/02/17 03:38:55;;;;;;;47.97;17.00;;;9.60;99.90;;;;;;4192159;28;20240;-74
2024/02/17 03:40:57;;;;;;;60.70;18.90;;;9.50;99.90;;;;;;4205373;28;20646;-74
2024/02/17 03:42:59;;;;;;;64.03;18.87;;;9.50;99.90;;;;;;4208260;28;20375;-74
2024/02/17 03:45:01;;;;;;;53.73;18.27;;;9.50;99.90;;;;;;4185061;28;20211;-74
2024/02/17 03:47:03;;;;;;;50.17;16.40;;;9.50;99.90;;;;;;4186101;28;20210;-74
2024/02/17 03:49:06;;;;;;;53.37;17.60;;;9.40;99.90;;;;;;4194776;28;20262;-74
2024/02/17 03:51:07;;;;;;;54.17;17.43;;;9.40;99.90;;;;;;4193735;28;20204;-73
2024/02/17 03:53:09;;;;;;;56.07;18.37;;;9.40;99.90;;;;;;4204541;28;20217;-74
2024/02/17 03:55:10;;;;;;;55.90;18.23;;;9.40;99.90;;;;;;4185622;28;20726;-74
2024/02/17 03:57:16;;;;;;;49.67;15.73;;;9.40;99.90;;;;;;4184984;28;20219;-74
2024/02/17 03:59:18;;;;;;;64.60;20.23;;;9.40;99.90;;;;;;4186041;28;20233;-74
2024/02/17 04:01:21;;;;;;;55.33;17.10;;;9.30;99.90;;;;;;4182499;28;20223;-74
2024/02/17 04:03:22;;;;;;;51.27;15.83;;;9.30;99.90;;;;;;4197955;28;20735;-74
2024/02/17 04:05:25;;;;;;;49.97;16.30;;;9.30;99.90;;;;;;4192870;28;20834;-74
2024/02/17 04:07:27;;;;;;;54.50;17.33;;;9.30;99.90;;;;;;4184491;28;20836;-74
2024/02/17 04:09:28;;;;;;;63.57;17.13;;;9.20;99.90;;;;;;4184708;28;20285;-73
2024/02/17 04:11:30;;;;;;;59.73;18.03;;;9.20;99.90;;;;;;4193138;28;20204;-74
2024/02/17 04:13:31;;;;;;;58.27;17.23;;;9.20;99.90;;;;;;4190620;28;20206;-74
2024/02/17 04:15:33;;;;;;;45.03;15.77;;;9.20;99.90;;;;;;4190923;28;20207;-74
2024/02/17 04:17:34;;;;;;;48.67;16.37;;;9.10;99.90;;;;;;4195703;28;20299;-74
2024/02/17 04:19:39;;;;;;;53.73;17.07;;;9.10;99.90;;;;;;4182323;28;20731;-75
2024/02/17 04:21:43;;;;;;;56.33;16.93;;;9.10;99.90;;;;;;4181204;28;20717;-75
2024/02/17 04:23:45;;;;;;;60.07;17.00;;;9.10;99.90;;;;;;4182799;28;20203;-75
2024/02/17 04:25:47;;;;;;;51.47;16.33;;;9.00;99.90;;;;;;4192831;28;20212;-74
2024/02/17 04:27:51;;;;;;;47.77;15.20;;;9.00;99.90;;;;;;4195645;28;20696;-74
2024/02/17 04:29:53;;;;;;;58.57;17.33;;;9.00;99.90;;;;;;4189181;28;20208;-75
2024/02/17 04:31:55;;;;;;;57.00;17.27;;;9.00;99.90;;;;;;4187176;28;20236;-74
2024/02/17 04:33:57;;;;;;;64.00;19.03;;;8.90;99.90;;;;;;4185746;28;20209;-74
2024/02/17 04:35:59;;;;;;;53.30;15.27;;;8.90;99.90;;;;;;4193053;28;20751;-74
2024/02/17 04:38:03;;;;;;;59.73;16.57;;;8.90;99.90;;;;;;4192175;28;20202;-75
2024/02/17 04:40:06;;;;;;;51.03;14.93;;;8.90;99.90;;;;;;4184886;28;20708;-75
2024/02/17 04:42:08;;;;;;;33.37;12.30;;;8.80;99.90;;;;;;4189194;28;20744;-74
2024/02/17 04:44:10;;;;;;;43.33;14.43;;;8.80;99.90;;;;;;4184112;28;20221;-75
2024/02/17 04:46:12;;;;;;;36.70;13.53;;;8.70;99.90;;;;;;4190130;28;20230;-74
2024/02/17 04:48:14;;;;;;;42.17;14.27;;;8.70;99.90;;;;;;4185502;28;20661;-74
2024/02/17 04:50:16;;;;;;;54.03;15.73;;;8.70;99.90;;;;;;4184100;28;20673;-74
2024/02/17 04:52:18;;;;;;;48.63;14.90;;;8.60;99.90;;;;;;4186830;28;20227;-74
2024/02/17 04:54:21;;;;;;;47.40;15.77;;;8.70;99.90;;;;;;4187646;28;20219;-74
2024/02/17 04:56:23;;;;;;;42.90;13.83;;;8.60;99.90;;;;;;4186135;28;20205;-75
2024/02/17 04:58:25;;;;;;;45.33;14.07;;;8.60;99.90;;;;;;4189137;28;20210;-75
2024/02/17 05:00:27;;;;;;;63.67;17.13;;;8.60;99.90;;;;;;4185323;28;20229;-74
2024/02/17 05:02:29;;;;;;;47.93;15.83;;;8.60;99.90;;;;;;4191965;28;20666;-74
2024/02/17 05:04:30;;;;;;;53.10;16.50;;;8.60;99.90;;;;;;4188366;28;20249;-74
2024/02/17 05:06:32;;;;;;;56.03;17.33;;;8.60;99.90;;;;;;4193453;28;20600;-74
2024/02/17 05:08:34;;;;;;;61.20;17.93;;;8.70;99.90;;;;;;4182700;28;20231;-75
2024/02/17 05:10:40;;;;;;;54.33;16.93;;;8.60;99.90;;;;;;4178975;28;20259;-75
2024/02/17 05:12:42;;;;;;;54.07;16.83;;;8.60;99.90;;;;;;4180338;28;20241;-74
2024/02/17 05:14:44;;;;;;;49.67;16.37;;;8.60;99.90;;;;;;4184061;28;20235;-74
2024/02/17 05:16:45;;;;;;;52.90;16.57;;;8.70;99.90;;;;;;4190249;28;20217;-74
2024/02/17 05:18:47;;;;;;;57.00;18.03;;;8.60;99.90;;;;;;4181745;28;20261;-74
2024/02/17 05:20:49;;;;;;;54.57;16.73;;;8.60;99.90;;;;;;4182092;28;20314;-75
2024/02/17 05:22:52;;;;;;;64.13;18.30;;;8.60;99.90;;;;;;4181426;28;20970;-74
2024/02/17 05:24:54;;;;;;;52.60;17.27;;;8.60;99.90;;;;;;4184012;28;20203;-75
2024/02/17 05:26:57;;;;;;;39.90;15.77;;;8.60;99.90;;;;;;4183447;28;20289;-74
2024/02/17 05:28:59;;;;;;;56.30;16.80;;;8.60;99.90;;;;;;4188377;28;20293;-74
2024/02/17 05:31:02;;;;;;;46.13;15.40;;;8.50;99.90;;;;;;4186608;28;20204;-74
2024/02/17 05:33:04;;;;;;;49.50;16.03;;;8.50;99.90;;;;;;4189375;28;20235;-74
2024/02/17 05:35:07;;;;;;;54.80;16.50;;;8.50;99.90;;;;;;4187681;28;20276;-74
2024/02/17 05:37:09;;;;;;;64.60;17.57;;;8.50;99.90;;;;;;4188209;28;20274;-74
2024/02/17 05:39:11;;;;;;;50.93;16.30;;;8.50;99.90;;;;;;4181457;28;20551;-74
2024/02/17 05:41:13;;;;;;;65.30;18.17;;;8.50;99.90;;;;;;4186346;28;20314;-75
2024/02/17 05:43:17;;;;;;;45.73;15.30;;;8.40;99.90;;;;;;4189029;28;20228;-74
2024/02/17 05:45:19;;;;;;;64.20;17.47;;;8.40;99.90;;;;;;4193716;28;20243;-75
2024/02/17 05:47:21;;;;;;;61.90;17.97;;;8.30;99.90;;;;;;4180734;28;20297;-75
2024/02/17 05:49:23;;;;;;;54.60;16.97;;;8.30;99.90;;;;;;4179086;28;20204;-75
2024/02/17 05:51:25;;;;;;;60.83;17.57;;;8.30;99.90;;;;;;4179019;28;20232;-75
2024/02/17 05:53:26;;;;;;;48.57;16.40;;;8.30;99.90;;;;;;4179701;28;20255;-75
2024/02/17 05:55:28;;;;;;;50.60;15.50;;;8.30;99.90;;;;;;4180697;28;20624;-74
2024/02/17 05:57:31;;;;;;;59.30;16.30;;;8.30;99.90;;;;;;4190364;28;20263;-74
2024/02/17 05:59:34;;;;;;;50.47;15.87;;;8.30;99.90;;;;;;4185548;28;20212;-74
2024/02/17 06:01:36;;;;;;;50.43;16.83;;;8.30;99.90;;;;;;4178990;28;20203;-75
2024/02/17 06:03:39;;;;;;;54.90;17.97;;;8.30;99.90;;;;;;4186250;28;20207;-75
2024/02/17 06:05:41;;;;;;;46.37;16.03;;;8.30;99.90;;;;;;4179690;28;20220;-74
2024/02/17 06:07:45;;;;;;;47.93;16.17;;;8.30;99.90;;;;;;4179074;28;20221;-75
2024/02/17 06:09:47;;;;;;;43.23;15.03;;;8.30;99.90;;;;;;4191101;28;20277;-75
2024/02/17 06:11:49;;;;;;;56.00;16.50;;;8.60;99.90;;;;;;4178060;28;20221;-75
2024/02/17 06:13:51;;;;;;;53.23;17.00;;;8.20;99.90;;;;;;4186859;28;20833;-74
2024/02/17 06:15:55;;;;;;;60.00;16.03;;;8.20;99.90;;;;;;4182960;28;20254;-74
2024/02/17 06:22:32;;;;;;;51.87;15.87;;;8.10;99.90;;;;;;4186542;28;20319;-75
2024/02/17 06:24:34;;;;;;;48.47;15.20;;;8.10;99.90;;;;;;4185873;28;20266;-75
2024/02/17 06:26:36;;;;;;;45.27;14.80;;;8.10;99.90;;;;;;4183325;28;20235;-75
2024/02/17 06:28:37;;;;;;;56.60;17.90;;;8.10;99.90;;;;;;4181325;28;20243;-75
2024/02/17 06:30:39;;;;;;;65.10;18.00;;;8.10;99.90;;;;;;4187735;28;20190;-75
2024/02/17 06:32:43;;;;;;;46.93;14.83;;;8.10;99.90;;;;;;4184777;28;20716;-75
2024/02/17 06:34:46;;;;;;;47.30;15.63;;;8.00;99.90;;;;;;4184601;28;20619;-75
2024/02/17 06:36:48;;;;;;;57.47;16.63;;;8.00;99.90;;;;;;4191444;28;20207;-75
2024/02/17 06:38:51;;;;;;;55.83;16.47;;;8.00;99.90;;;;;;4184000;28;20292;-76
2024/02/17 06:40:52;;;;;;;62.13;16.33;;;8.00;99.90;;;;;;4183172;28;20227;-76
2024/02/17 06:42:54;;;;;;;50.10;15.77;;;7.90;99.90;;;;;;4185665;28;20230;-75
2024/02/17 06:44:56;;;;;;;47.90;15.03;;;8.00;99.90;;;;;;4186891;28;20226;-77
2024/02/17 06:46:58;;;;;;;42.33;14.07;;;7.90;99.90;;;;;;4183879;28;20227;-75
2024/02/17 06:49:02;;;;;;;48.00;14.73;;;7.90;99.90;;;;;;4186915;28;20225;-75
2024/02/17 06:51:04;;;;;;;47.50;15.07;;;7.90;99.90;;;;;;4179842;28;20227;-75
2024/02/17 06:53:06;;;;;;;41.83;14.93;;;7.90;99.90;;;;;;4185994;28;20218;-75
2024/02/17 06:55:09;;;;;;;51.83;14.67;;;7.90;99.90;;;;;;4188076;28;20203;-75
2024/02/17 06:57:11;;;;;;;50.33;15.20;;;7.90;99.90;;;;;;4184364;28;20292;-76
2024/02/17 06:59:13;;;;;;;52.23;15.40;;;7.90;99.90;;;;;;4184568;28;20202;-75
2024/02/17 07:01:15;;;;;;;51.13;15.33;;;7.80;99.90;;;;;;4182656;28;20211;-75
2024/02/17 07:03:17;;;;;;;63.67;17.33;;;7.90;99.90;;;;;;4182771;28;20248;-75
2024/02/17 07:05:19;;;;;;;43.90;14.27;;;7.80;99.90;;;;;;4186017;28;20681;-75
2024/02/17 07:07:21;;;;;;;40.53;14.50;;;7.80;99.90;;;;;;4188587;28;20264;-74
2024/02/17 07:09:24;;;;;;;41.63;14.37;;;7.80;99.90;;;;;;4184446;28;20690;-74
2024/02/17 07:11:25;;;;;;;48.17;15.90;;;7.90;99.90;;;;;;4187733;28;20208;-74
2024/02/17 07:13:27;;;;;;;44.20;15.40;;;7.90;99.90;;;;;;4186347;28;20313;-75
2024/02/17 07:15:31;;;;;;;51.57;15.53;;;7.90;99.90;;;;;;4186549;28;20209;-75
2024/02/17 07:17:33;;;;;;;63.80;16.73;;;7.90;99.90;;;;;;4185604;28;20211;-76
2024/02/17 07:19:35;;;;;;;46.40;15.40;;;7.90;99.90;;;;;;4184489;28;20302;-74
2024/02/17 07:21:38;;;;;;;49.83;16.03;;;7.90;99.90;;;;;;4186525;28;20654;-74
2024/02/17 07:23:39;;;;;;;48.67;15.37;;;7.90;99.90;;;;;;4178919;28;21027;-75
2024/02/17 07:25:42;;;;;;;53.20;16.77;;;7.90;99.90;;;;;;4186988;28;20452;-75
2024/02/17 07:27:46;;;;;;;64.50;17.57;;;8.00;99.90;;;;;;4184019;28;20203;-75
2024/02/17 07:29:48;;;;;;;44.53;14.43;;;8.10;99.90;;;;;;4180027;28;20198;-74
2024/02/17 07:31:50;;;;;;;47.13;15.43;;;8.10;99.90;;;;;;4186922;28;20195;-75
2024/02/17 07:33:53;;;;;;;51.50;16.63;;;8.10;99.90;;;;;;4191007;28;20259;-75
2024/02/17 07:35:55;;;;;;;47.83;14.87;;;8.20;99.90;;;;;;4182916;28;20200;-75
2024/02/17 07:37:58;;;;;;;53.33;15.30;;;8.30;99.90;;;;;;4185414;28;20251;-75
2024/02/17 07:40:00;;;;;;;56.57;15.93;;;8.30;99.90;;;;;;4186137;28;20234;-75
2024/02/17 07:42:02;;;;;;;51.07;15.37;;;8.30;99.90;;;;;;4186617;28;20665;-75
2024/02/17 07:44:08;;;;;;;45.23;15.47;;;8.40;99.90;;;;;;4187200;28;20283;-75
2024/02/17 07:46:10;;;;;;;37.77;13.47;;;8.40;99.90;;;;;;4178194;28;20285;-75
2024/02/17 07:48:11;;;;;;;44.60;14.77;;;8.50;99.90;;;;;;4189652;28;20208;-75
2024/02/17 07:50:13;;;;;;;43.20;14.87;;;8.50;99.90;;;;;;4186926;28;20209;-75
2024/02/17 07:52:15;;;;;;;51.97;15.33;;;8.50;99.90;;;;;;4183008;28;20248;-75
2024/02/17 07:54:17;;;;;;;40.37;14.03;;;8.50;99.90;;;;;;4189617;28;20200;-75
2024/02/17 07:56:19;;;;;;;50.97;15.33;;;8.50;99.90;;;;;;4189078;28;20208;-75
2024/02/17 07:58:23;;;;;;;45.60;14.10;;;8.50;99.90;;;;;;4187922;28;20228;-75
2024/02/17 08:00:24;;;;;;;38.73;13.23;;;8.60;99.90;;;;;;4187269;28;20844;-75
2024/02/17 08:02:26;;;;;;;40.87;13.97;;;8.60;99.90;;;;;;4188308;28;20224;-75
2024/02/17 08:04:28;;;;;;;47.87;15.63;;;8.70;99.90;;;;;;4186159;28;20234;-75
2024/02/17 08:06:30;;;;;;;42.00;13.77;;;8.60;99.90;;;;;;4192179;28;20198;-75
2024/02/17 08:08:32;;;;;;;44.47;13.77;;;8.70;99.90;;;;;;4186375;28;20212;-75
2024/02/17 08:10:35;;;;;;;42.67;15.10;;;8.70;99.90;;;;;;4201705;28;20204;-75
2024/02/17 08:12:38;;;;;;;38.17;13.70;;;8.70;99.90;;;;;;4186820;28;20252;-75
2024/02/17 08:14:40;;;;;;;57.43;15.70;;;8.80;99.90;;;;;;4186314;28;20290;-75
2024/02/17 08:16:42;;;;;;;42.73;13.40;;;8.80;99.90;;;;;;4188580;28;20223;-75
2024/02/17 08:18:45;;;;;;;47.90;15.57;;;8.80;99.90;;;;;;4186116;28;20208;-75
2024/02/17 08:20:48;;;;;;;48.07;15.57;;;8.90;99.90;;;;;;4186291;28;20228;-74
2024/02/17 08:22:50;;;;;;;46.80;15.00;;;8.90;99.90;;;;;;4186216;28;20319;-75
2024/02/17 08:24:52;;;;;;;39.70;13.80;;;8.90;99.90;;;;;;4193265;28;20209;-75
2024/02/17 08:26:55;;;;;;;43.40;13.97;;;9.00;99.90;;;;;;4188963;28;20210;-75
2024/02/17 08:28:57;;;;;;;37.13;14.43;;;9.00;99.90;;;;;;4184904;28;20201;-74
2024/02/17 08:30:59;;;;;;;36.77;13.63;;;9.00;99.90;;;;;;4187173;28;20618;-74
2024/02/17 08:33:01;;;;;;;42.87;14.13;;;9.00;99.90;;;;;;4192274;28;20236;-74
2024/02/17 08:35:03;;;;;;;41.30;13.73;;;9.00;99.90;;;;;;4186005;28;20216;-75
2024/02/17 08:37:05;;;;;;;30.93;11.93;;;9.10;99.90;;;;;;4183463;28;20716;-74
2024/02/17 08:39:08;;;;;;;28.57;11.13;;;9.10;99.90;;;;;;4186365;28;20214;-77
2024/02/17 08:41:10;;;;;;;31.23;12.20;;;9.10;99.90;;;;;;4185748;28;20241;-75
2024/02/17 08:43:13;;;;;;;26.50;11.50;;;9.20;99.90;;;;;;4187437;28;20236;-76
2024/02/17 08:45:16;;;;;;;29.73;11.13;;;9.30;99.90;;;;;;4188195;28;20218;-81
2024/02/17 08:47:17;;;;;;;32.57;12.33;;;9.30;99.90;;;;;;4190570;28;20206;-80
2024/02/17 08:49:19;;;;;;;37.17;12.77;;;9.30;99.90;;;;;;4189706;28;20206;-80
2024/02/17 08:51:21;;;;;;;29.63;10.80;;;9.30;99.90;;;;;;4196374;28;20190;-77
2024/02/17 08:53:23;;;;;;;30.57;11.80;;;9.40;99.90;;;;;;4190990;28;20265;-76
2024/02/17 08:55:25;;;;;;;26.53;11.50;;;9.40;99.90;;;;;;4189656;28;20684;-73
2024/02/17 08:57:27;;;;;;;33.73;11.70;;;9.40;99.90;;;;;;4185669;28;20209;-74
2024/02/17 08:59:30;;;;;;;31.80;11.37;;;9.40;99.90;;;;;;4192146;28;20710;-74
2024/02/17 09:01:32;;;;;;;27.07;10.63;;;9.40;99.90;;;;;;4186010;28;20296;-73
2024/02/17 09:03:34;;;;;;;25.73;11.30;;;9.50;99.90;;;;;;4184089;28;20253;-73
2024/02/17 09:05:35;;;;;;;33.00;12.07;;;9.50;99.90;;;;;;4191170;28;20289;-73
2024/02/17 09:07:37;;;;;;;34.17;12.13;;;9.50;99.90;;;;;;4190048;28;20220;-73
2024/02/17 09:09:39;;;;;;;33.10;12.07;;;9.50;99.90;;;;;;4184544;28;20289;-72
2024/02/17 09:11:41;;;;;;;35.70;12.93;;;9.50;99.90;;;;;;4187795;28;20237;-73
2024/02/17 09:13:43;;;;;;;29.27;10.77;;;9.50;99.90;;;;;;4181108;28;20251;-74
2024/02/17 09:15:48;;;;;;;35.23;12.37;;;9.50;99.90;;;;;;4189478;28;20197;-72
2024/02/17 09:17:50;;;;;;;28.37;11.10;;;9.50;99.90;;;;;;4184453;28;20669;-73
2024/02/17 09:19:52;;;;;;;34.10;12.93;;;9.50;99.90;;;;;;4190792;28;20212;-73
2024/02/17 09:21:55;;;;;;;27.57;10.83;;;9.40;99.90;;;;;;4180613;28;20324;-73
2024/02/17 09:23:57;;;;;;;27.93;12.33;;;9.50;99.90;;;;;;4184718;28;20209;-73
2024/02/17 09:25:58;;;;;;;29.40;10.93;;;9.40;99.90;;;;;;4181358;28;20729;-74
2024/02/17 09:28:00;;;;;;;28.57;10.70;;;9.40;99.90;;;;;;4186058;28;20201;-74
2024/02/17 09:30:04;;;;;;;29.63;11.30;;;9.40;99.90;;;;;;4194179;28;20606;-74
2024/02/17 09:32:07;;;;;;;21.50;9.07;;;9.40;99.90;;;;;;4186382;28;20226;-75
2024/02/17 09:34:10;;;;;;;41.10;13.50;;;9.40;99.90;;;;;;4187736;28;20205;-74
2024/02/17 09:36:13;;;;;;;28.63;10.83;;;9.40;99.90;;;;;;4182433;28;20865;-77
2024/02/17 09:38:15;;;;;;;35.20;12.67;;;9.40;99.90;;;;;;4189539;28;20669;-75
2024/02/17 09:40:18;;;;;;;26.10;10.83;;;9.40;99.90;;;;;;4192964;28;20209;-75
2024/02/17 09:42:20;;;;;;;28.80;10.93;;;9.40;99.90;;;;;;4186751;28;20305;-75
2024/02/17 09:44:22;;;;;;;24.83;9.73;;;9.50;99.90;;;;;;4188294;28;20258;-76
2024/02/17 09:46:27;;;;;;;31.73;12.03;;;9.50;99.90;;;;;;4187995;28;20217;-77
2024/02/17 09:48:31;;;;;;;23.87;9.83;;;9.50;99.90;;;;;;4187977;28;20215;-76
2024/02/17 09:50:33;;;;;;;28.60;11.50;;;9.60;99.90;;;;;;4181926;28;20217;-75
2024/02/17 09:52:35;;;;;;;27.37;11.97;;;9.60;99.90;;;;;;4188616;28;20580;-75
2024/02/17 09:54:39;;;;;;;32.27;13.43;;;9.70;99.90;;;;;;4190367;28;20282;-75
2024/02/17 09:56:40;;;;;;;28.63;11.70;;;9.70;99.90;;;;;;4189548;28;20662;-75
2024/02/17 09:58:41;;;;;;;25.20;11.53;;;9.80;99.90;;;;;;4184764;28;20194;-76
2024/02/17 10:00:43;;;;;;;31.20;12.67;;;9.80;99.90;;;;;;4187289;28;20292;-76
2024/02/17 10:02:44;;;;;;;24.20;11.30;;;9.90;99.90;;;;;;4182766;28;20323;-75
2024/02/17 10:04:58;;;;;;;33.83;13.00;;;9.90;99.90;;;;;;4187455;28;20206;-75
2024/02/17 10:07:00;;;;;;;32.37;13.07;;;9.90;99.90;;;;;;4188087;28;20566;-76
2024/02/17 10:09:03;;;;;;;27.83;11.63;;;9.90;99.90;;;;;;4188283;28;20234;-74
2024/02/17 10:11:06;;;;;;;29.70;12.30;;;9.90;99.90;;;;;;4186063;28;20289;-79
2024/02/17 10:13:17;;;;;;;24.80;11.10;;;9.90;99.90;;;;;;4188339;28;20266;-80
2024/02/17 10:15:20;;;;;;;26.40;11.33;;;9.90;99.90;;;;;;4185394;28;20209;-79
2024/02/17 10:17:23;;;;;;;23.33;10.50;;;9.90;99.90;;;;;;4181901;28;20198;-81
2024/02/17 10:19:25;;;;;;;22.20;10.60;;;9.90;99.90;;;;;;4183622;28;20205;-75
2024/02/17 10:21:29;;;;;;;23.73;10.60;;;10.00;99.90;;;;;;4184329;28;20324;-75
2024/02/17 10:23:34;;;;;;;24.57;11.17;;;10.00;99.90;;;;;;4187039;28;21190;-78
2024/02/17 10:25:37;;;;;;;27.73;12.37;;;10.00;99.90;;;;;;4188507;28;20217;-77
2024/02/17 10:27:43;;;;;;;22.77;11.17;;;10.00;99.90;;;;;;4183226;28;20272;-76
2024/02/17 10:29:45;;;;;;;29.30;12.53;;;10.00;99.90;;;;;;4187321;28;20822;-77